Time;durP1;ratioP1;P1;durP2;ratioP2;P2;SDS_P1;SDS_P2;PMS_P1;PMS_P2;Temp;Humidity;BMP_temperature;BMP_pressure;BME280_temperature;BME280_humidity;BME280_pressure;Samples;Min_cycle;Max_cycle;Signal;HPM_P1;HPM_P2
2022/11/10 00:03:07;;;;;;;16.10;9.60;;;;;;;6.60;91.87;101645.81;107646;1243;72570;-73
2022/11/10 00:05:54;;;;;;;18.10;10.00;;;;;;;6.61;91.79;101648.22;107634;1246;71334;-72
2022/11/10 00:08:40;;;;;;;19.00;9.40;;;;;;;6.59;92.23;101646.38;107553;1248;72238;-73
2022/11/10 00:11:26;;;;;;;15.30;9.00;;;;;;;6.57;91.98;101643.16;107530;1246;62482;-71
2022/11/10 00:17:17;;;;;;;15.80;9.70;;;;;;;6.52;92.22;101640.27;107633;1248;63401;-75
2022/11/10 00:20:04;;;;;;;18.00;11.20;;;;;;;6.50;92.11;101641.58;107608;1246;61562;-74
2022/11/10 00:22:50;;;;;;;16.20;9.90;;;;;;;6.49;92.33;101638.86;107501;1249;59093;-72
2022/11/10 00:25:36;;;;;;;19.60;9.50;;;;;;;6.48;92.19;101634.59;107397;1250;63229;-72
2022/11/10 00:28:22;;;;;;;17.60;9.40;;;;;;;6.47;92.13;101636.14;107379;1239;58908;-71
2022/11/10 00:31:09;;;;;;;15.80;8.80;;;;;;;6.49;92.26;101633.65;107354;1243;59021;-71
2022/11/10 00:33:57;;;;;;;16.70;9.80;;;;;;;6.52;92.41;101636.82;107346;1248;63001;-73
2022/11/10 00:36:44;;;;;;;18.30;10.00;;;;;;;6.56;92.47;101639.77;107451;1241;60766;-70
2022/11/10 00:39:29;;;;;;;15.50;10.60;;;;;;;6.60;91.87;101640.27;107380;1239;70818;-72
2022/11/10 00:42:16;;;;;;;17.20;9.70;;;;;;;6.63;93.34;101638.78;107350;1247;73770;-72
2022/11/10 00:45:03;;;;;;;20.10;9.30;;;;;;;6.63;93.61;101634.44;107393;1246;58898;-73
2022/11/10 00:47:48;;;;;;;17.90;9.50;;;;;;;6.64;94.47;101632.14;107458;1247;57514;-76
2022/11/10 00:50:34;;;;;;;17.30;9.70;;;;;;;6.63;93.36;101633.73;107373;1242;73202;-70
2022/11/10 00:53:20;;;;;;;15.40;9.50;;;;;;;6.63;92.64;101639.11;107343;1238;71561;-67
2022/11/10 00:56:06;;;;;;;19.80;10.70;;;;;;;6.63;92.24;101635.98;107387;1245;70789;-70
2022/11/10 00:58:52;;;;;;;17.50;9.50;;;;;;;6.62;92.41;101631.73;107470;1242;64383;-70
2022/11/10 01:01:38;;;;;;;15.80;9.00;;;;;;;6.58;91.75;101631.21;107557;1246;62236;-74
2022/11/10 01:04:24;;;;;;;16.90;9.20;;;;;;;6.57;92.55;101630.37;107653;1246;58917;-72
2022/11/10 01:07:10;;;;;;;17.60;9.90;;;;;;;6.55;92.72;101630.61;107479;1250;73439;-73
2022/11/10 01:09:56;;;;;;;16.20;10.00;;;;;;;6.53;92.82;101627.44;107548;1247;62323;-74
2022/11/10 01:12:42;;;;;;;17.50;9.80;;;;;;;6.52;92.63;101627.81;107601;1248;59404;-72
2022/11/10 01:15:27;;;;;;;18.20;10.20;;;;;;;6.51;92.35;101620.39;107590;1248;73702;-71
2022/11/10 01:18:13;;;;;;;19.70;9.40;;;;;;;6.52;92.43;101623.13;107489;1242;62825;-70
2022/11/10 01:21:00;;;;;;;20.20;9.50;;;;;;;6.53;93.01;101621.04;107511;1250;62106;-69
2022/11/10 01:23:46;;;;;;;16.30;8.90;;;;;;;6.51;93.09;101619.55;107511;1250;63396;-69
2022/11/10 01:26:32;;;;;;;18.10;9.10;;;;;;;6.52;93.29;101618.48;107462;1248;61815;-69
2022/11/10 01:29:19;;;;;;;17.70;9.70;;;;;;;6.51;93.83;101620.40;107421;1243;69928;-69
2022/11/10 01:32:05;;;;;;;16.30;9.50;;;;;;;6.48;93.64;101618.63;107346;1248;72775;-68
2022/11/10 01:34:51;;;;;;;16.80;9.70;;;;;;;6.45;93.60;101619.78;107426;1248;59063;-69
2022/11/10 01:37:37;;;;;;;21.50;10.40;;;;;;;6.42;92.75;101621.14;107374;1248;59228;-71
2022/11/10 01:40:23;;;;;;;17.30;9.20;;;;;;;6.38;94.46;101621.27;107417;1238;73757;-70
2022/11/10 01:43:11;;;;;;;16.30;8.70;;;;;;;6.34;94.35;101619.52;107407;1247;72136;-68
2022/11/10 01:46:13;;;;;;;16.40;9.40;;;;;;;6.30;94.06;101623.34;107471;1244;69454;-68
2022/11/10 01:49:02;;;;;;;17.20;10.70;;;;;;;6.26;94.67;101620.72;107666;1246;73410;-67
2022/11/10 01:51:55;;;;;;;19.90;10.20;;;;;;;6.22;95.31;101626.41;107566;1246;63570;-67
2022/11/10 01:54:47;;;;;;;16.60;8.80;;;;;;;6.17;95.72;101626.80;107543;1237;58860;-69
2022/11/10 01:57:36;;;;;;;15.80;9.40;;;;;;;6.12;95.25;101629.77;107532;1241;73739;-69
2022/11/10 02:00:22;;;;;;;17.00;9.40;;;;;;;6.08;96.64;101630.07;107350;1246;72755;-69
2022/11/10 02:03:31;;;;;;;19.60;9.80;;;;;;;6.03;96.14;101632.00;107543;1246;70403;-69
2022/11/10 02:06:21;;;;;;;15.30;9.30;;;;;;;5.97;96.33;101622.36;107517;1242;72636;-68
2022/11/10 02:09:07;;;;;;;18.40;9.40;;;;;;;5.91;95.62;101623.63;107557;1243;59001;-69
2022/11/10 02:11:55;;;;;;;17.20;9.30;;;;;;;5.85;95.57;101623.85;107582;1240;59015;-70
2022/11/10 02:14:42;;;;;;;15.00;9.60;;;;;;;5.80;96.44;101623.51;107563;1250;62431;-69
2022/11/10 02:17:28;;;;;;;15.50;9.30;;;;;;;5.76;97.13;101622.98;107670;1238;60901;-71
2022/11/10 02:20:18;;;;;;;17.40;10.00;;;;;;;5.71;97.52;101624.05;107611;1243;70387;-71
2022/11/10 02:23:34;;;;;;;15.20;8.90;;;;;;;5.66;97.27;101625.10;107591;1246;62937;-69
2022/11/10 02:26:26;;;;;;;15.20;8.90;;;;;;;5.57;96.76;101626.27;107538;1246;62089;-68
2022/11/10 02:29:14;;;;;;;17.50;9.20;;;;;;;5.51;96.50;101628.90;107636;1247;61203;-68
2022/11/10 02:32:00;;;;;;;15.60;9.30;;;;;;;5.44;96.52;101630.37;107595;1248;62701;-68
2022/11/10 02:34:46;;;;;;;14.40;9.80;;;;;;;5.36;96.07;101627.23;107630;1243;61107;-69
2022/11/10 02:37:33;;;;;;;17.60;9.20;;;;;;;5.29;96.57;101630.39;107662;1242;60098;-70
2022/11/10 02:40:18;;;;;;;19.00;9.30;;;;;;;5.22;96.58;101629.95;107560;1245;74188;-70
2022/11/10 02:43:11;;;;;;;15.40;9.60;;;;;;;5.14;96.48;101631.46;107568;1241;58915;-69
2022/11/10 02:45:57;;;;;;;17.10;9.10;;;;;;;5.04;96.22;101630.24;107653;1248;57418;-69
2022/11/10 02:48:43;;;;;;;15.30;9.10;;;;;;;4.95;96.25;101632.45;107651;1249;62436;-70
2022/11/10 02:51:29;;;;;;;19.00;9.50;;;;;;;4.87;96.25;101633.45;107674;1248;73013;-69
2022/11/10 02:54:15;;;;;;;18.70;9.80;;;;;;;4.81;96.50;101632.77;107606;1242;69859;-70
2022/11/10 02:57:02;;;;;;;17.70;9.70;;;;;;;4.75;96.71;101633.48;107610;1247;72972;-68
2022/11/10 02:59:48;;;;;;;14.70;9.20;;;;;;;4.73;97.06;101635.63;107619;1238;62109;-69
2022/11/10 03:02:34;;;;;;;17.20;9.80;;;;;;;4.71;97.80;101638.44;107565;1248;58995;-70
2022/11/10 03:05:20;;;;;;;17.80;10.00;;;;;;;4.75;99.71;101634.67;107597;1250;73069;-70
2022/11/10 03:08:06;;;;;;;17.50;10.20;;;;;;;4.74;99.49;101635.05;107581;1248;71343;-71
2022/11/10 03:10:55;;;;;;;16.10;9.40;;;;;;;4.76;99.71;101638.97;107621;1250;69964;-70
2022/11/10 03:13:41;;;;;;;18.30;10.10;;;;;;;4.74;99.72;101636.41;107576;1246;63145;-70
2022/11/10 03:16:47;;;;;;;17.30;9.80;;;;;;;4.74;99.46;101639.73;107529;1241;59226;-70
2022/11/10 03:19:34;;;;;;;18.40;10.10;;;;;;;4.75;99.86;101639.00;107632;1242;59058;-69
2022/11/10 03:22:20;;;;;;;18.90;10.30;;;;;;;4.74;99.87;101642.66;107592;1246;62359;-71
2022/11/10 03:25:07;;;;;;;16.10;10.00;;;;;;;4.72;99.37;101642.55;107622;1242;69755;-70
2022/11/10 03:27:52;;;;;;;15.00;9.00;;;;;;;4.70;98.70;101642.45;107573;1240;70086;-70
2022/11/10 03:30:38;;;;;;;16.20;9.00;;;;;;;4.65;98.24;101642.95;107584;1247;63167;-71
2022/11/10 03:33:25;;;;;;;16.20;8.80;;;;;;;4.58;97.83;101639.42;107561;1238;61701;-70
2022/11/10 03:36:12;;;;;;;17.00;9.80;;;;;;;4.49;97.69;101643.13;107557;1245;61260;-69
2022/11/10 03:38:58;;;;;;;16.60;9.10;;;;;;;4.42;97.54;101643.68;107549;1245;72422;-67
2022/11/10 03:41:44;;;;;;;15.90;10.10;;;;;;;4.37;97.72;101645.91;107586;1245;61100;-69
2022/11/10 03:44:30;;;;;;;16.40;9.20;;;;;;;4.32;98.62;101647.14;107588;1239;59338;-70
2022/11/10 03:47:16;;;;;;;14.20;9.30;;;;;;;4.27;98.80;101656.42;107522;1241;73430;-71
2022/11/10 03:50:02;;;;;;;15.70;9.80;;;;;;;4.21;98.88;101655.20;107598;1244;62113;-69
2022/11/10 03:52:48;;;;;;;20.60;10.60;;;;;;;4.18;99.22;101648.24;107621;1246;60619;-68
2022/11/10 03:55:34;;;;;;;19.20;10.90;;;;;;;4.11;98.86;101648.61;107607;1247;71663;-70
2022/11/10 03:58:20;;;;;;;17.80;9.80;;;;;;;4.06;98.80;101648.61;107574;1245;61176;-68
2022/11/10 04:01:07;;;;;;;17.40;9.60;;;;;;;3.98;98.14;101642.29;107547;1245;59405;-69
2022/11/10 04:03:53;;;;;;;17.80;9.50;;;;;;;3.92;98.46;101643.34;107513;1245;63535;-71
2022/11/10 04:10:07;;;;;;;19.30;11.60;;;;;;;3.80;98.64;101643.20;107423;1242;61485;-70
2022/11/10 04:15:57;;;;;;;17.10;9.90;;;;;;;3.70;98.59;101645.04;107548;1238;62701;-70
2022/11/10 04:18:43;;;;;;;18.60;9.50;;;;;;;3.66;98.98;101651.35;107571;1244;68776;-69
2022/11/10 04:21:29;;;;;;;16.50;10.20;;;;;;;3.64;99.89;101652.61;107585;1237;74936;-70
2022/11/10 04:24:16;;;;;;;19.80;11.10;;;;;;;3.60;99.93;101653.59;107800;1240;60936;-73
2022/11/10 04:27:02;;;;;;;18.20;10.20;;;;;;;3.57;99.79;101659.17;107759;1245;58474;-72
2022/11/10 04:29:48;;;;;;;16.80;10.20;;;;;;;3.56;99.39;101667.14;107566;1244;62893;-72
2022/11/10 04:32:34;;;;;;;38.60;22.00;;;;;;;3.55;99.72;101664.58;107527;1245;71086;-71
2022/11/10 04:35:20;;;;;;;21.40;11.60;;;;;;;3.54;99.90;101667.71;107692;1244;59790;-71
2022/11/10 04:38:06;;;;;;;16.40;9.70;;;;;;;3.52;99.71;101670.02;107545;1244;62510;-75
2022/11/10 04:40:52;;;;;;;17.30;10.50;;;;;;;3.53;99.84;101672.73;107639;1244;57534;-73
2022/11/10 04:43:38;;;;;;;20.40;10.60;;;;;;;3.50;99.71;101669.88;107841;1244;57503;-72
2022/11/10 04:46:30;;;;;;;30.40;16.70;;;;;;;3.49;99.59;101671.13;107847;1243;73427;-71
2022/11/10 04:49:17;;;;;;;32.10;17.80;;;;;;;3.50;99.76;101673.17;107735;1245;60975;-72
2022/11/10 04:52:03;;;;;;;21.30;12.60;;;;;;;3.50;99.63;101673.33;107890;1243;70434;-75
2022/11/10 04:54:49;;;;;;;27.40;17.70;;;;;;;3.51;99.71;101676.23;107637;1244;63105;-72
2022/11/10 04:57:35;;;;;;;33.30;19.60;;;;;;;3.57;99.98;101682.80;107560;1244;59016;-73
2022/11/10 05:00:21;;;;;;;26.00;12.80;;;;;;;3.63;100.00;101683.30;107697;1241;60072;-72
2022/11/10 05:03:10;;;;;;;49.10;31.70;;;;;;;3.74;100.00;101684.19;107665;1245;72505;-69
2022/11/10 05:05:56;;;;;;;20.10;12.60;;;;;;;3.81;100.00;101686.58;107558;1245;61069;-71
2022/11/10 05:08:43;;;;;;;18.10;11.40;;;;;;;3.86;99.61;101690.73;108535;1246;59391;-75
2022/11/10 05:11:30;;;;;;;20.10;11.70;;;;;;;3.92;99.72;101689.52;107578;1243;392361;-75
2022/11/10 05:14:16;;;;;;;21.10;11.40;;;;;;;4.02;99.84;101691.52;107822;1238;61154;-71
2022/11/10 05:17:02;;;;;;;21.70;12.10;;;;;;;4.13;100.00;101694.25;107839;1243;58964;-70
2022/11/10 05:19:48;;;;;;;27.50;15.90;;;;;;;4.26;100.00;101697.15;107717;1245;62396;-73
2022/11/10 05:22:34;;;;;;;29.60;20.10;;;;;;;4.37;100.00;101700.95;107627;1237;69840;-77
2022/11/10 05:25:20;;;;;;;24.80;14.20;;;;;;;4.49;100.00;101709.38;107593;1244;69341;-68
2022/11/10 05:28:09;;;;;;;28.60;17.50;;;;;;;4.60;100.00;101709.38;107820;1245;74123;-71
2022/11/10 05:30:54;;;;;;;32.60;19.80;;;;;;;4.70;99.96;101716.84;107585;1243;58909;-73
2022/11/10 05:33:40;;;;;;;24.20;13.20;;;;;;;4.84;100.00;101718.61;107687;1245;61697;-73
2022/11/10 05:36:26;;;;;;;29.00;17.00;;;;;;;4.94;100.00;101721.37;107604;1244;72360;-71
2022/11/10 05:39:12;;;;;;;22.80;12.80;;;;;;;5.06;100.00;101731.52;107603;1236;71825;-71
2022/11/10 05:41:58;;;;;;;21.10;13.10;;;;;;;5.16;99.98;101731.55;107598;1244;60929;-71
2022/11/10 05:44:44;;;;;;;26.10;16.00;;;;;;;5.28;99.43;101735.10;107557;1245;73573;-71
2022/11/10 05:47:30;;;;;;;25.90;14.60;;;;;;;5.39;99.07;101737.32;107597;1244;58916;-71
2022/11/10 05:50:18;;;;;;;25.00;14.20;;;;;;;5.54;99.11;101739.92;107629;1242;60244;-72
2022/11/10 05:53:04;;;;;;;23.20;13.30;;;;;;;5.66;99.19;101739.67;107560;1243;63670;-71
2022/11/10 05:55:50;;;;;;;22.90;13.40;;;;;;;5.79;98.84;101737.29;107579;1246;71807;-70
2022/11/10 05:58:36;;;;;;;24.40;12.70;;;;;;;5.93;98.55;101736.99;107630;1244;70546;-71
2022/11/10 06:01:22;;;;;;;25.00;13.90;;;;;;;6.07;99.18;101738.89;107723;1244;75267;-72
2022/11/10 06:11:50;;;;;;;22.20;14.90;;;;;;;6.67;98.19;101752.36;102910;1297;601881;-73
2022/11/10 06:14:37;;;;;;;25.30;15.10;;;;;;;6.84;98.37;101760.52;104847;1273;62480;-75
2022/11/10 06:17:25;;;;;;;22.90;14.70;;;;;;;6.99;98.14;101761.63;105234;1273;59183;-72
2022/11/10 06:20:16;;;;;;;20.20;13.70;;;;;;;7.16;97.42;101765.43;105281;1278;60630;-74
2022/11/10 06:23:13;;;;;;;22.00;13.40;;;;;;;7.30;96.69;101767.80;105268;1264;61431;-71
2022/11/10 06:26:00;;;;;;;23.80;13.50;;;;;;;7.44;96.10;101769.64;105080;1263;321195;-71
2022/11/10 06:28:48;;;;;;;25.80;14.00;;;;;;;7.55;95.56;101778.35;105494;1275;63950;-71
2022/11/10 06:31:35;;;;;;;23.00;13.30;;;;;;;7.59;94.96;101779.94;105400;1271;60402;-71
2022/11/10 06:34:22;;;;;;;23.00;13.00;;;;;;;7.67;94.39;101780.10;105560;1267;60606;-72
2022/11/10 06:37:10;;;;;;;25.60;13.70;;;;;;;7.68;94.14;101780.90;105410;1267;60891;-71
2022/11/10 06:39:57;;;;;;;23.10;14.10;;;;;;;7.77;93.70;101781.58;105436;1267;72130;-71
2022/11/10 06:42:45;;;;;;;25.40;13.50;;;;;;;7.82;93.54;101780.45;105629;1267;59527;-73
2022/11/10 06:45:32;;;;;;;23.60;13.90;;;;;;;7.92;93.10;101784.03;105554;1266;73425;-70
2022/11/10 06:48:20;;;;;;;23.60;13.30;;;;;;;7.93;92.76;101783.27;105555;1273;61697;-72
2022/11/10 06:51:07;;;;;;;24.60;15.30;;;;;;;7.95;92.62;101787.73;105665;1268;61461;-73
2022/11/10 06:53:56;;;;;;;25.80;14.00;;;;;;;7.97;92.99;101790.20;105558;1267;72533;-74
2022/11/10 06:56:43;;;;;;;29.20;15.10;;;;;;;8.14;92.57;101792.39;105258;1264;72075;-74
2022/11/10 06:59:31;;;;;;;23.10;14.60;;;;;;;8.15;92.38;101791.30;105363;1268;60143;-71
2022/11/10 07:02:19;;;;;;;32.10;14.70;;;;;;;8.28;92.02;101789.86;105382;1266;73800;-71
2022/11/10 07:05:07;;;;;;;25.50;14.90;;;;;;;8.38;91.34;101787.17;105411;1263;59066;-72
2022/11/10 07:07:55;;;;;;;26.90;15.30;;;;;;;8.47;91.38;101785.35;105416;1267;60448;-72
2022/11/10 07:10:51;;;;;;;27.90;17.50;;;;;;;8.47;90.99;101783.82;105289;1270;62347;-73
2022/11/10 07:13:39;;;;;;;33.20;18.00;;;;;;;8.27;92.37;101783.32;105399;1264;71716;-71
2022/11/10 07:16:26;;;;;;;36.00;17.20;;;;;;;8.38;92.22;101784.23;105369;1269;59135;-73
2022/11/10 07:19:14;;;;;;;26.30;15.50;;;;;;;8.56;91.70;101787.56;105343;1267;72613;-72
2022/11/10 07:22:01;;;;;;;24.00;14.80;;;;;;;8.58;91.19;101786.59;105355;1263;61874;-72
2022/11/10 07:24:56;;;;;;;28.50;16.50;;;;;;;8.70;90.66;101790.17;105588;1264;61690;-72
2022/11/10 07:27:43;;;;;;;29.60;15.70;;;;;;;8.67;91.05;101789.84;105342;1267;72842;-72
2022/11/10 07:30:33;;;;;;;30.40;17.60;;;;;;;8.81;90.64;101784.49;105332;1266;70881;-72
2022/11/10 07:33:21;;;;;;;31.90;17.70;;;;;;;8.77;90.67;101784.45;105320;1263;69305;-72
2022/11/10 07:36:08;;;;;;;31.50;16.70;;;;;;;8.89;91.09;101785.63;105328;1263;74224;-72
2022/11/10 07:38:56;;;;;;;29.50;16.30;;;;;;;9.06;90.22;101790.23;105214;1276;62956;-71
2022/11/10 07:41:43;;;;;;;33.80;17.00;;;;;;;9.06;89.93;101790.86;105342;1267;59046;-72
2022/11/10 07:44:37;;;;;;;29.50;17.10;;;;;;;8.95;90.50;101787.27;105409;1276;61481;-72
2022/11/10 07:47:24;;;;;;;32.00;16.50;;;;;;;9.05;90.27;101788.02;105382;1266;71743;-73
2022/11/10 07:50:12;;;;;;;31.40;17.60;;;;;;;9.05;90.31;101788.69;105369;1267;59654;-74
2022/11/10 07:53:15;;;;;;;30.20;18.10;;;;;;;9.14;89.97;101789.11;105380;1269;64240;-71
2022/11/10 07:56:02;;;;;;;29.00;16.60;;;;;;;9.18;90.04;101784.38;105446;1273;63256;-72
2022/11/10 07:58:50;;;;;;;30.80;17.40;;;;;;;9.33;89.18;101782.08;105572;1267;59862;-72
2022/11/10 08:01:37;;;;;;;32.20;16.30;;;;;;;9.43;89.21;101786.81;105305;1266;72925;-73
2022/11/10 08:04:25;;;;;;;29.70;17.70;;;;;;;9.58;88.54;101787.28;105333;1273;61778;-72
2022/11/10 08:07:12;;;;;;;29.70;16.90;;;;;;;9.50;88.95;101792.34;105473;1275;59720;-71
2022/11/10 08:10:00;;;;;;;28.50;14.00;;;;;;;9.53;88.60;101790.31;105357;1266;73010;-73
2022/11/10 08:12:58;;;;;;;27.40;16.90;;;;;;;9.43;88.98;101790.64;105493;1272;58433;-70
2022/11/10 08:15:45;;;;;;;27.50;15.80;;;;;;;9.53;89.04;101793.25;105421;1270;58996;-72
2022/11/10 08:18:33;;;;;;;32.90;17.20;;;;;;;9.79;87.78;101792.58;105249;1273;72854;-72
2022/11/10 08:21:21;;;;;;;30.80;17.40;;;;;;;9.94;87.07;101792.17;105160;1267;72846;-74
2022/11/10 08:24:09;;;;;;;30.00;17.10;;;;;;;10.06;86.27;101793.77;105181;1276;70307;-73
2022/11/10 08:26:56;;;;;;;27.50;16.70;;;;;;;10.12;86.38;101792.97;105201;1273;62601;-72
2022/11/10 08:29:44;;;;;;;28.70;16.90;;;;;;;10.28;85.36;101790.58;105200;1273;62293;-71
2022/11/10 08:32:31;;;;;;;25.90;15.90;;;;;;;10.46;84.69;101795.17;105251;1278;57809;-75
2022/11/10 08:35:19;;;;;;;34.40;18.80;;;;;;;10.68;83.66;101802.49;105493;1272;71811;-72
2022/11/10 08:38:18;;;;;;;28.50;15.60;;;;;;;10.84;83.19;101806.30;105480;1266;72309;-73
2022/11/10 08:41:05;;;;;;;31.30;17.20;;;;;;;10.97;81.60;101800.34;105364;1273;69932;-73
2022/11/10 08:43:53;;;;;;;29.90;16.90;;;;;;;11.14;80.92;101803.19;105389;1258;72430;-72
2022/11/10 08:46:43;;;;;;;27.10;15.80;;;;;;;11.31;79.81;101804.13;105448;1267;59139;-72
2022/11/10 08:49:30;;;;;;;33.30;17.70;;;;;;;11.35;79.73;101804.75;105371;1266;59082;-73
2022/11/10 08:52:17;;;;;;;27.30;16.40;;;;;;;11.52;79.00;101802.37;105479;1264;72116;-73
2022/11/10 08:55:04;;;;;;;31.40;17.20;;;;;;;11.75;77.75;101801.00;105441;1270;61875;-75
2022/11/10 08:57:52;;;;;;;27.20;16.90;;;;;;;12.09;76.77;101804.21;105584;1263;68606;-72
2022/11/10 09:00:39;;;;;;;23.70;15.80;;;;;;;11.93;76.75;101807.59;105523;1267;63231;-77
2022/11/10 09:03:26;;;;;;;23.20;13.90;;;;;;;12.14;75.53;101811.59;105308;1263;60822;-72
2022/11/10 09:06:14;;;;;;;27.70;16.90;;;;;;;12.09;75.12;101810.31;105439;1276;57465;-74
2022/11/10 09:09:01;;;;;;;28.80;17.90;;;;;;;12.01;76.03;101808.58;105469;1266;72181;-72
2022/11/10 09:11:49;;;;;;;28.80;18.00;;;;;;;12.06;76.17;101807.58;105308;1267;61447;-73
2022/11/10 09:14:36;;;;;;;27.10;17.60;;;;;;;12.31;74.60;101807.04;105428;1263;70444;-73
2022/11/10 09:17:24;;;;;;;28.70;18.10;;;;;;;12.15;74.89;101801.27;105633;1266;74795;-74
2022/11/10 09:20:11;;;;;;;28.00;17.50;;;;;;;11.91;75.84;101797.79;105564;1263;58966;-72
2022/11/10 09:23:07;;;;;;;26.60;17.10;;;;;;;12.12;75.59;101799.70;105519;1270;61011;-73
2022/11/10 09:25:55;;;;;;;27.00;17.10;;;;;;;12.36;74.65;101803.60;105260;1275;63082;-71
2022/11/10 09:28:42;;;;;;;23.90;16.40;;;;;;;12.47;74.24;101802.04;105361;1269;72264;-73
2022/11/10 09:31:30;;;;;;;26.80;16.90;;;;;;;12.48;74.43;101798.45;105617;1263;60201;-73
2022/11/10 09:34:17;;;;;;;22.20;14.10;;;;;;;12.74;74.03;101796.98;105322;1277;62591;-70
2022/11/10 09:37:04;;;;;;;27.60;17.30;;;;;;;13.04;72.21;101789.27;105523;1266;60590;-71
2022/11/10 09:39:52;;;;;;;28.80;16.60;;;;;;;13.01;71.85;101787.73;105406;1267;60385;-72
2022/11/10 09:42:40;;;;;;;30.50;18.20;;;;;;;12.80;72.18;101790.12;105409;1277;71774;-72
2022/11/10 09:45:43;;;;;;;30.40;16.90;;;;;;;12.67;72.46;101787.14;105332;1270;72498;-72
2022/11/10 09:48:39;;;;;;;29.60;17.30;;;;;;;12.53;73.21;101784.35;105497;1277;59740;-74
2022/11/10 09:51:35;;;;;;;24.60;16.70;;;;;;;13.00;72.26;101785.99;105306;1267;71990;-73
2022/11/10 09:54:55;;;;;;;25.50;17.20;;;;;;;13.09;71.55;101786.32;105210;1272;59067;-71
2022/11/10 09:57:45;;;;;;;27.20;17.00;;;;;;;13.38;71.26;101786.15;105417;1267;58892;-72
2022/11/10 10:00:35;;;;;;;28.20;17.50;;;;;;;13.82;69.81;101784.37;105450;1277;71269;-73
2022/11/10 10:03:30;;;;;;;28.80;17.30;;;;;;;13.75;68.88;101785.77;105268;1267;61311;-74
2022/11/10 10:06:20;;;;;;;26.40;16.80;;;;;;;13.68;68.91;101783.95;105351;1273;59354;-72
2022/11/10 10:09:33;;;;;;;27.70;16.50;;;;;;;13.79;68.45;101781.58;105347;1270;74018;-73
2022/11/10 10:13:00;;;;;;;23.10;16.80;;;;;;;13.55;69.13;101777.15;105625;1270;60957;-74
2022/11/10 10:16:32;;;;;;;28.60;16.80;;;;;;;13.89;68.14;101770.45;105747;1263;61528;-73
2022/11/10 10:19:25;;;;;;;26.60;17.00;;;;;;;13.91;68.11;101776.20;105465;1272;64315;-73
2022/11/10 10:22:57;;;;;;;27.60;17.40;;;;;;;13.92;68.39;101770.37;105308;1267;71512;-72
2022/11/10 10:25:45;;;;;;;24.20;16.30;;;;;;;14.21;67.29;101773.09;105510;1273;60379;-73
2022/11/10 10:28:44;;;;;;;27.00;16.90;;;;;;;14.32;67.34;101772.30;105540;1263;62271;-74
2022/11/10 10:31:49;;;;;;;23.20;16.10;;;;;;;14.43;66.37;101772.41;105530;1274;58972;-76
2022/11/10 10:34:36;;;;;;;29.00;17.70;;;;;;;14.64;66.01;101774.39;105487;1263;59103;-74
2022/11/10 10:37:43;;;;;;;25.70;16.30;;;;;;;14.68;65.35;101773.05;105409;1266;73709;-74
2022/11/10 10:40:30;;;;;;;25.90;17.00;;;;;;;15.08;65.71;101768.50;105519;1267;60519;-73
2022/11/10 10:43:18;;;;;;;26.30;15.50;;;;;;;14.97;64.66;101764.80;105315;1270;59922;-74
2022/11/10 10:46:14;;;;;;;22.30;14.70;;;;;;;14.61;64.76;101763.42;105463;1277;72275;-71
2022/11/10 10:49:17;;;;;;;21.40;14.00;;;;;;;14.90;65.07;101762.46;105537;1263;59005;-72
2022/11/10 10:52:23;;;;;;;21.70;14.60;;;;;;;15.16;63.19;101759.50;105284;1267;61433;-74
2022/11/10 10:55:13;;;;;;;19.80;14.50;;;;;;;14.75;64.19;101750.98;105243;1266;62886;-72
2022/11/10 10:58:23;;;;;;;21.80;15.30;;;;;;;15.11;63.82;101754.64;105320;1269;71356;-73
2022/11/10 11:01:20;;;;;;;17.80;13.30;;;;;;;15.88;61.53;101755.04;105345;1269;70694;-73
2022/11/10 11:04:34;;;;;;;20.40;14.70;;;;;;;15.99;60.45;101752.39;105423;1267;73621;-72
2022/11/10 11:07:24;;;;;;;21.20;14.20;;;;;;;15.57;61.31;101747.84;105534;1263;59081;-71
2022/11/10 11:10:44;;;;;;;23.10;14.50;;;;;;;14.91;63.21;101748.73;105596;1268;58122;-73
2022/11/10 11:13:31;;;;;;;23.10;14.40;;;;;;;15.24;62.57;101748.58;105566;1277;64083;-75
2022/11/10 11:16:18;;;;;;;24.70;14.70;;;;;;;14.82;63.49;101744.19;105591;1264;72122;-73
2022/11/10 11:19:08;;;;;;;21.60;13.50;;;;;;;15.51;61.93;101750.03;105488;1269;61545;-74
2022/11/10 11:22:48;;;;;;;21.40;14.00;;;;;;;15.93;60.49;101749.95;105414;1267;63156;-73
2022/11/10 11:25:42;;;;;;;19.20;12.50;;;;;;;15.66;60.59;101747.44;105527;1263;59034;-72
2022/11/10 11:28:45;;;;;;;19.30;13.40;;;;;;;16.06;59.29;101745.88;105481;1278;61185;-72
2022/11/10 11:31:58;;;;;;;19.50;12.30;;;;;;;16.02;59.55;101748.68;105570;1277;62605;-76
2022/11/10 11:35:21;;;;;;;19.70;12.70;;;;;;;16.50;58.26;101747.45;105417;1267;71115;-73
2022/11/10 11:38:43;;;;;;;17.60;12.50;;;;;;;16.47;57.65;101743.86;105366;1267;59971;-73
2022/11/10 11:41:45;;;;;;;20.40;12.90;;;;;;;16.99;56.31;101741.70;105138;1264;73807;-73
2022/11/10 11:45:18;;;;;;;19.30;13.10;;;;;;;17.11;56.26;101741.38;105284;1274;59010;-73
2022/11/10 11:48:41;;;;;;;18.20;11.80;;;;;;;17.71;55.07;101743.16;105245;1264;61216;-74
2022/11/10 11:52:02;;;;;;;19.20;12.20;;;;;;;17.64;54.77;101744.12;105298;1264;73786;-73
2022/11/10 11:55:20;;;;;;;20.10;12.10;;;;;;;18.30;52.60;101745.77;105282;1267;71982;-72
2022/11/10 11:58:23;;;;;;;20.10;12.70;;;;;;;17.92;53.31;101744.91;105218;1276;59845;-72
2022/11/10 12:01:43;;;;;;;23.30;12.80;;;;;;;18.02;53.08;101744.75;105291;1262;73679;-73
2022/11/10 12:04:30;;;;;;;19.40;12.80;;;;;;;18.05;52.68;101747.84;106146;1258;58934;-72
2022/11/10 12:08:07;;;;;;;16.90;12.60;;;;;;;17.81;52.96;101747.95;106016;1258;59125;-73
2022/11/10 12:11:04;;;;;;;16.60;12.90;;;;;;;17.67;53.31;101750.06;105996;1257;62351;-72
2022/11/10 12:14:13;;;;;;;22.00;13.80;;;;;;;17.57;53.63;101752.68;106216;1257;71673;-73
2022/11/10 12:17:21;;;;;;;22.10;14.00;;;;;;;17.93;53.07;101753.31;106162;1257;70219;-74
2022/11/10 12:20:46;;;;;;;21.50;13.00;;;;;;;17.71;53.39;101755.21;106097;1265;72559;-75
2022/11/10 12:24:19;;;;;;;18.30;13.40;;;;;;;17.37;54.11;101757.34;106313;1248;59042;-75
2022/11/10 12:27:09;;;;;;;19.40;12.60;;;;;;;17.10;55.10;101753.36;106179;1257;59158;-75
2022/11/10 12:30:23;;;;;;;25.80;14.00;;;;;;;17.60;54.07;101749.58;106281;1260;73428;-73
2022/11/10 12:33:32;;;;;;;30.10;14.70;;;;;;;17.96;53.14;101754.41;106535;1265;61733;-72
2022/11/10 12:36:22;;;;;;;18.60;13.40;;;;;;;18.12;52.44;101754.25;106513;1257;60981;-74
2022/11/10 12:40:01;;;;;;;20.80;13.20;;;;;;;17.99;52.69;101752.64;106182;1265;72863;-74
2022/11/10 12:43:00;;;;;;;17.20;11.40;;;;;;;18.68;51.50;101758.85;106232;1260;61033;-73
2022/11/10 12:45:57;;;;;;;20.20;13.30;;;;;;;19.29;50.22;101762.73;106306;1265;60550;-74
2022/11/10 12:48:59;;;;;;;19.30;13.40;;;;;;;18.68;50.67;101765.36;106232;1256;62425;-74
2022/11/10 12:52:15;;;;;;;26.00;12.50;;;;;;;19.08;50.70;101770.19;106282;1251;70851;-74
2022/11/10 12:55:03;;;;;;;20.70;12.80;;;;;;;20.05;48.59;101769.60;106362;1257;69870;-72
2022/11/10 12:57:51;;;;;;;19.60;11.70;;;;;;;20.17;47.07;101773.36;106066;1257;63168;-73
2022/11/10 13:00:54;;;;;;;20.80;12.70;;;;;;;20.04;46.62;101771.25;106270;1261;59114;-73
2022/11/10 13:03:56;;;;;;;24.40;13.20;;;;;;;19.66;47.82;101772.95;106131;1260;59118;-73
2022/11/10 13:07:04;;;;;;;22.30;14.10;;;;;;;19.74;47.86;101774.68;106265;1268;62137;-74
2022/11/10 13:10:21;;;;;;;22.30;12.80;;;;;;;19.69;48.50;101774.57;106254;1257;71269;-73
2022/11/10 13:13:16;;;;;;;26.30;14.70;;;;;;;19.98;47.39;101778.60;106280;1258;60695;-73
2022/11/10 13:16:04;;;;;;;24.60;13.90;;;;;;;19.87;47.35;101780.34;106222;1260;73521;-73
2022/11/10 13:18:53;;;;;;;21.40;15.00;;;;;;;19.74;47.67;101780.83;106303;1254;61170;-76